sensor_id;sensor_type;location;lat;lon;timestamp;pressure;altitude;pressure_sealevel;temperature;humidity
9063;BME280;4567;42.118;24.746;2022-11-27T00:02:24;100863.63;;;7.34;55.21
9063;BME280;4567;42.118;24.746;2022-11-27T00:04:50;100864.00;;;7.42;55.10
9063;BME280;4567;42.118;24.746;2022-11-27T00:07:17;100862.44;;;7.51;54.89
9063;BME280;4567;42.118;24.746;2022-11-27T00:09:44;100853.50;;;7.56;54.74
9063;BME280;4567;42.118;24.746;2022-11-27T00:12:10;100863.88;;;7.59;54.75
9063;BME280;4567;42.118;24.746;2022-11-27T00:14:37;100860.88;;;7.60;54.88
9063;BME280;4567;42.118;24.746;2022-11-27T00:17:04;100863.06;;;7.58;55.27
9063;BME280;4567;42.118;24.746;2022-11-27T00:19:32;100867.22;;;7.66;55.64
9063;BME280;4567;42.118;24.746;2022-11-27T00:21:58;100866.47;;;7.75;55.48
9063;BME280;4567;42.118;24.746;2022-11-27T00:24:25;100871.97;;;7.80;55.41
9063;BME280;4567;42.118;24.746;2022-11-27T00:26:52;100868.59;;;7.68;55.81
9063;BME280;4567;42.118;24.746;2022-11-27T00:29:18;100868.03;;;7.66;55.93
9063;BME280;4567;42.118;24.746;2022-11-27T00:31:45;100864.56;;;7.71;56.10
9063;BME280;4567;42.118;24.746;2022-11-27T00:34:12;100878.50;;;7.74;56.14
9063;BME280;4567;42.118;24.746;2022-11-27T00:36:40;100871.47;;;7.83;56.07
9063;BME280;4567;42.118;24.746;2022-11-27T00:39:06;100873.16;;;7.89;55.76
9063;BME280;4567;42.118;24.746;2022-11-27T00:41:33;100875.31;;;7.87;55.86
9063;BME280;4567;42.118;24.746;2022-11-27T00:44:00;100873.41;;;7.88;56.10
9063;BME280;4567;42.118;24.746;2022-11-27T00:46:28;100861.34;;;7.79;56.17
9063;BME280;4567;42.118;24.746;2022-11-27T00:48:56;100879.69;;;7.88;55.81
9063;BME280;4567;42.118;24.746;2022-11-27T00:51:23;100881.91;;;7.91;55.97
9063;BME280;4567;42.118;24.746;2022-11-27T00:53:52;100868.41;;;7.75;56.24
9063;BME280;4567;42.118;24.746;2022-11-27T00:56:21;100890.41;;;7.95;56.02
9063;BME280;4567;42.118;24.746;2022-11-27T00:58:48;100895.03;;;7.94;55.84
9063;BME280;4567;42.118;24.746;2022-11-27T01:01:17;100894.75;;;7.91;56.25
9063;BME280;4567;42.118;24.746;2022-11-27T01:03:44;100894.41;;;7.87;56.04
9063;BME280;4567;42.118;24.746;2022-11-27T01:06:11;100896.06;;;7.88;56.03
9063;BME280;4567;42.118;24.746;2022-11-27T01:08:38;100882.38;;;7.83;55.99
9063;BME280;4567;42.118;24.746;2022-11-27T01:11:07;100883.19;;;7.79;56.40
9063;BME280;4567;42.118;24.746;2022-11-27T01:13:38;100875.78;;;7.79;56.54
9063;BME280;4567;42.118;24.746;2022-11-27T01:16:07;100855.53;;;7.70;56.46
9063;BME280;4567;42.118;24.746;2022-11-27T01:18:35;100870.06;;;7.81;56.38
9063;BME280;4567;42.118;24.746;2022-11-27T01:21:03;100868.13;;;7.76;56.22
9063;BME280;4567;42.118;24.746;2022-11-27T01:23:30;100876.22;;;7.66;56.02
9063;BME280;4567;42.118;24.746;2022-11-27T01:25:59;100874.53;;;7.60;55.54
9063;BME280;4567;42.118;24.746;2022-11-27T01:28:27;100876.38;;;7.55;55.39
9063;BME280;4567;42.118;24.746;2022-11-27T01:30:54;100873.13;;;7.58;55.49
9063;BME280;4567;42.118;24.746;2022-11-27T01:33:20;100848.78;;;7.46;55.66
9063;BME280;4567;42.118;24.746;2022-11-27T01:35:55;100870.09;;;7.49;55.89
9063;BME280;4567;42.118;24.746;2022-11-27T01:38:22;100873.78;;;7.38;55.76
9063;BME280;4567;42.118;24.746;2022-11-27T01:40:49;100865.03;;;7.36;55.95
9063;BME280;4567;42.118;24.746;2022-11-27T01:43:16;100872.75;;;7.44;55.70
9063;BME280;4567;42.118;24.746;2022-11-27T01:45:44;100868.28;;;7.33;55.85
9063;BME280;4567;42.118;24.746;2022-11-27T01:48:11;100870.94;;;7.28;56.22
9063;BME280;4567;42.118;24.746;2022-11-27T01:50:39;100869.41;;;7.37;55.97
9063;BME280;4567;42.118;24.746;2022-11-27T01:53:10;100869.41;;;7.37;55.73
9063;BME280;4567;42.118;24.746;2022-11-27T01:55:41;100865.03;;;7.36;56.08
9063;BME280;4567;42.118;24.746;2022-11-27T01:58:13;100868.00;;;7.35;56.53
9063;BME280;4567;42.118;24.746;2022-11-27T02:00:40;100861.78;;;7.39;56.48
9063;BME280;4567;42.118;24.746;2022-11-27T02:03:08;100864.00;;;7.42;56.64
9063;BME280;4567;42.118;24.746;2022-11-27T02:05:35;100867.41;;;7.54;56.38
9063;BME280;4567;42.118;24.746;2022-11-27T02:08:05;100859.16;;;7.49;56.65
9063;BME280;4567;42.118;24.746;2022-11-27T02:10:43;100863.06;;;7.58;56.47
9063;BME280;4567;42.118;24.746;2022-11-27T02:13:17;100859.03;;;7.66;56.50
9063;BME280;4567;42.118;24.746;2022-11-27T02:15:50;100859.84;;;7.66;56.34
9063;BME280;4567;42.118;24.746;2022-11-27T02:18:25;100871.28;;;7.63;56.53
9063;BME280;4567;42.118;24.746;2022-11-27T02:20:58;100865.34;;;7.71;56.38
9063;BME280;4567;42.118;24.746;2022-11-27T02:27:03;100859.38;;;7.74;55.93
9063;BME280;4567;42.118;24.746;2022-11-27T02:29:33;100863.69;;;7.65;56.09
9063;BME280;4567;42.118;24.746;2022-11-27T02:32:06;100859.34;;;7.69;56.45
9063;BME280;4567;42.118;24.746;2022-11-27T02:34:42;100861.84;;;7.76;56.40
9063;BME280;4567;42.118;24.746;2022-11-27T02:37:16;100861.59;;;7.77;56.23
9063;BME280;4567;42.118;24.746;2022-11-27T02:39:50;100870.31;;;7.74;56.21
9063;BME280;4567;42.118;24.746;2022-11-27T02:42:20;100848.09;;;7.66;56.36
9063;BME280;4567;42.118;24.746;2022-11-27T02:44:52;100875.47;;;7.71;56.39
9063;BME280;4567;42.118;24.746;2022-11-27T02:47:21;100875.75;;;7.74;56.35
9063;BME280;4567;42.118;24.746;2022-11-27T02:49:50;100879.91;;;7.82;55.93
9063;BME280;4567;42.118;24.746;2022-11-27T02:52:18;100881.09;;;7.91;55.92
9063;BME280;4567;42.118;24.746;2022-11-27T02:54:47;100882.47;;;7.93;55.58
9063;BME280;4567;42.118;24.746;2022-11-27T02:57:19;100885.53;;;8.02;55.43
9063;BME280;4567;42.118;24.746;2022-11-27T02:59:48;100890.72;;;8.03;55.55
9063;BME280;4567;42.118;24.746;2022-11-27T03:02:18;100882.56;;;8.08;55.75
9063;BME280;4567;42.118;24.746;2022-11-27T03:04:48;100889.16;;;8.12;55.47
9063;BME280;4567;42.118;24.746;2022-11-27T03:07:21;100886.41;;;8.12;55.63
9063;BME280;4567;42.118;24.746;2022-11-27T03:09:51;100837.91;;;7.83;55.88
9063;BME280;4567;42.118;24.746;2022-11-27T03:12:22;100890.22;;;8.06;56.06
9063;BME280;4567;42.118;24.746;2022-11-27T03:14:50;100884.16;;;8.04;56.12
9063;BME280;4567;42.118;24.746;2022-11-27T03:17:25;100886.34;;;8.02;56.27
9063;BME280;4567;42.118;24.746;2022-11-27T03:20:01;100893.44;;;7.98;56.06
9063;BME280;4567;42.118;24.746;2022-11-27T03:22:29;100890.41;;;7.95;56.50
9063;BME280;4567;42.118;24.746;2022-11-27T03:24:56;100886.25;;;7.92;56.56
9063;BME280;4567;42.118;24.746;2022-11-27T03:27:28;100885.63;;;7.80;57.08
9063;BME280;4567;42.118;24.746;2022-11-27T03:30:00;100892.44;;;7.78;56.85
9063;BME280;4567;42.118;24.746;2022-11-27T03:32:28;100895.72;;;7.80;57.00
9063;BME280;4567;42.118;24.746;2022-11-27T03:34:56;100894.09;;;7.79;56.91
9063;BME280;4567;42.118;24.746;2022-11-27T03:37:23;100897.63;;;7.79;56.87
9063;BME280;4567;42.118;24.746;2022-11-27T03:39:51;100897.63;;;7.79;56.68
9063;BME280;4567;42.118;24.746;2022-11-27T03:42:22;100894.34;;;7.77;56.51
9063;BME280;4567;42.118;24.746;2022-11-27T03:44:56;100894.91;;;7.79;56.52
9063;BME280;4567;42.118;24.746;2022-11-27T03:47:35;100894.34;;;7.77;56.76
9063;BME280;4567;42.118;24.746;2022-11-27T03:50:16;100887.22;;;7.76;56.92
9063;BME280;4567;42.118;24.746;2022-11-27T03:52:51;100896.34;;;7.60;56.76
9063;BME280;4567;42.118;24.746;2022-11-27T03:55:24;100889.78;;;7.56;56.74
9063;BME280;4567;42.118;24.746;2022-11-27T03:57:58;100891.63;;;7.51;56.93
9063;BME280;4567;42.118;24.746;2022-11-27T04:00:27;100893.97;;;7.37;57.49
9063;BME280;4567;42.118;24.746;2022-11-27T04:02:57;100891.25;;;7.37;57.46
9063;BME280;4567;42.118;24.746;2022-11-27T04:05:24;100886.84;;;7.36;57.73
9063;BME280;4567;42.118;24.746;2022-11-27T04:07:50;100887.38;;;7.33;58.24
9063;BME280;4567;42.118;24.746;2022-11-27T04:10:17;100871.94;;;7.17;58.95
9063;BME280;4567;42.118;24.746;2022-11-27T04:12:44;100879.25;;;7.12;59.42
9063;BME280;4567;42.118;24.746;2022-11-27T04:15:11;100883.47;;;7.03;59.84
9063;BME280;4567;42.118;24.746;2022-11-27T04:17:38;100879.06;;;6.97;60.13
9063;BME280;4567;42.118;24.746;2022-11-27T04:20:07;100882.34;;;6.99;60.29
9063;BME280;4567;42.118;24.746;2022-11-27T04:22:34;100881.31;;;7.05;60.44
9063;BME280;4567;42.118;24.746;2022-11-27T04:25:00;100888.66;;;7.04;59.99
9063;BME280;4567;42.118;24.746;2022-11-27T04:27:28;100880.50;;;7.04;60.48
9063;BME280;4567;42.118;24.746;2022-11-27T04:29:55;100884.91;;;7.05;60.65
9063;BME280;4567;42.118;24.746;2022-11-27T04:32:21;100889.00;;;7.08;60.51
9063;BME280;4567;42.118;24.746;2022-11-27T04:34:48;100887.09;;;7.08;60.67
9063;BME280;4567;42.118;24.746;2022-11-27T04:37:16;100886.13;;;7.19;60.32
9063;BME280;4567;42.118;24.746;2022-11-27T04:39:42;100884.56;;;7.28;59.82
9063;BME280;4567;42.118;24.746;2022-11-27T04:42:09;100870.00;;;7.18;59.83
9063;BME280;4567;42.118;24.746;2022-11-27T04:44:36;100875.28;;;7.03;60.64
9063;BME280;4567;42.118;24.746;2022-11-27T04:47:03;100887.63;;;7.05;60.30
9063;BME280;4567;42.118;24.746;2022-11-27T04:49:29;100886.84;;;7.10;60.42
9063;BME280;4567;42.118;24.746;2022-11-27T04:51:56;100893.47;;;7.19;60.33
9063;BME280;4567;42.118;24.746;2022-11-27T04:54:24;100886.16;;;7.24;60.10
9063;BME280;4567;42.118;24.746;2022-11-27T04:56:51;100890.81;;;7.24;59.92
9063;BME280;4567;42.118;24.746;2022-11-27T04:59:17;100885.56;;;7.17;59.79
9063;BME280;4567;42.118;24.746;2022-11-27T05:01:44;100890.44;;;7.15;59.95
9063;BME280;4567;42.118;24.746;2022-11-27T05:04:11;100893.47;;;7.19;59.72
9063;BME280;4567;42.118;24.746;2022-11-27T05:06:37;100886.41;;;7.23;59.77
9063;BME280;4567;42.118;24.746;2022-11-27T05:09:04;100889.47;;;7.26;59.76
9063;BME280;4567;42.118;24.746;2022-11-27T05:11:32;100899.59;;;7.31;59.35
9063;BME280;4567;42.118;24.746;2022-11-27T05:13:59;100894.47;;;7.34;59.56
9063;BME280;4567;42.118;24.746;2022-11-27T05:16:43;100892.88;;;7.38;59.43
9063;BME280;4567;42.118;24.746;2022-11-27T05:19:11;100895.91;;;7.42;59.20
9063;BME280;4567;42.118;24.746;2022-11-27T05:21:38;100901.69;;;7.45;58.76
9063;BME280;4567;42.118;24.746;2022-11-27T05:24:06;100898.41;;;7.48;58.89
9063;BME280;4567;42.118;24.746;2022-11-27T05:26:34;100904.97;;;7.47;58.58
9063;BME280;4567;42.118;24.746;2022-11-27T05:29:01;100904.47;;;7.50;58.68
9063;BME280;4567;42.118;24.746;2022-11-27T05:31:28;100908.00;;;7.51;58.82
9063;BME280;4567;42.118;24.746;2022-11-27T05:33:55;100915.41;;;7.55;58.67
9063;BME280;4567;42.118;24.746;2022-11-27T05:36:21;100920.31;;;7.53;58.79
9063;BME280;4567;42.118;24.746;2022-11-27T05:38:48;100904.75;;;7.54;58.45
9063;BME280;4567;42.118;24.746;2022-11-27T05:41:15;100907.28;;;7.60;58.54
9063;BME280;4567;42.118;24.746;2022-11-27T05:43:43;100912.22;;;7.63;58.35
9063;BME280;4567;42.118;24.746;2022-11-27T05:46:12;100910.00;;;7.60;58.50
9063;BME280;4567;42.118;24.746;2022-11-27T05:48:40;100907.53;;;7.59;58.57
9063;BME280;4567;42.118;24.746;2022-11-27T05:51:07;100910.53;;;7.57;58.78
9063;BME280;4567;42.118;24.746;2022-11-27T05:53:34;100922.50;;;7.56;58.65
9063;BME280;4567;42.118;24.746;2022-11-27T05:56:02;100933.16;;;7.58;58.42
9063;BME280;4567;42.118;24.746;2022-11-27T05:58:29;100930.78;;;7.61;58.89
9063;BME280;4567;42.118;24.746;2022-11-27T06:00:58;100937.63;;;7.64;58.97
9063;BME280;4567;42.118;24.746;2022-11-27T06:03:24;100934.88;;;7.64;59.20
9063;BME280;4567;42.118;24.746;2022-11-27T06:05:52;100933.78;;;7.65;59.32
9063;BME280;4567;42.118;24.746;2022-11-27T06:08:19;100933.78;;;7.65;58.99
9063;BME280;4567;42.118;24.746;2022-11-27T06:10:46;100924.22;;;7.62;59.18
9063;BME280;4567;42.118;24.746;2022-11-27T06:13:13;100948.09;;;7.77;58.95
9063;BME280;4567;42.118;24.746;2022-11-27T06:15:40;100947.34;;;7.81;58.27
9063;BME280;4567;42.118;24.746;2022-11-27T06:18:09;100945.19;;;7.88;58.21
9063;BME280;4567;42.118;24.746;2022-11-27T06:20:36;100938.69;;;7.89;58.54
9063;BME280;4567;42.118;24.746;2022-11-27T06:23:03;100950.09;;;7.86;58.19
9063;BME280;4567;42.118;24.746;2022-11-27T06:25:30;100943.03;;;7.90;58.04
9063;BME280;4567;42.118;24.746;2022-11-27T06:27:56;100940.69;;;7.99;57.97
9063;BME280;4567;42.118;24.746;2022-11-27T06:30:23;100939.31;;;8.01;57.97
9063;BME280;4567;42.118;24.746;2022-11-27T06:32:50;100941.84;;;8.08;57.83
9063;BME280;4567;42.118;24.746;2022-11-27T06:35:18;100932.59;;;8.14;57.66
9063;BME280;4567;42.118;24.746;2022-11-27T06:37:44;100937.53;;;8.17;57.81
9063;BME280;4567;42.118;24.746;2022-11-27T06:40:12;100937.34;;;8.23;57.43
9063;BME280;4567;42.118;24.746;2022-11-27T06:42:38;100948.03;;;8.30;57.03
9063;BME280;4567;42.118;24.746;2022-11-27T06:45:07;100943.16;;;8.32;56.68
9063;BME280;4567;42.118;24.746;2022-11-27T06:47:34;100935.50;;;8.34;56.05
9063;BME280;4567;42.118;24.746;2022-11-27T06:50:01;100936.34;;;8.39;55.91
9063;BME280;4567;42.118;24.746;2022-11-27T06:52:29;100944.28;;;8.41;55.73
9063;BME280;4567;42.118;24.746;2022-11-27T06:54:56;100942.66;;;8.40;55.72
9063;BME280;4567;42.118;24.746;2022-11-27T06:57:22;100939.44;;;8.48;55.24
9063;BME280;4567;42.118;24.746;2022-11-27T06:59:49;100940.56;;;8.52;54.92
9063;BME280;4567;42.118;24.746;2022-11-27T07:02:16;100940.28;;;8.48;55.31
9063;BME280;4567;42.118;24.746;2022-11-27T07:04:42;100934.81;;;8.48;54.82
9063;BME280;4567;42.118;24.746;2022-11-27T07:07:09;100941.06;;;8.49;54.84
9063;BME280;4567;42.118;24.746;2022-11-27T07:09:37;100941.38;;;8.52;54.80
9063;BME280;4567;42.118;24.746;2022-11-27T07:12:04;100936.72;;;8.53;54.72
9063;BME280;4567;42.118;24.746;2022-11-27T07:14:32;100946.28;;;8.50;54.70
9063;BME280;4567;42.118;24.746;2022-11-27T07:16:59;100946.28;;;8.50;54.85
9063;BME280;4567;42.118;24.746;2022-11-27T07:19:25;100939.66;;;8.41;54.79
9063;BME280;4567;42.118;24.746;2022-11-27T07:21:52;100941.59;;;8.46;54.67
9063;BME280;4567;42.118;24.746;2022-11-27T07:24:19;100948.97;;;8.40;54.71
9063;BME280;4567;42.118;24.746;2022-11-27T07:26:47;100944.06;;;8.47;55.02
9063;BME280;4567;42.118;24.746;2022-11-27T07:29:14;100930.09;;;8.39;55.35
9063;BME280;4567;42.118;24.746;2022-11-27T07:31:40;100948.16;;;8.45;55.26
9063;BME280;4567;42.118;24.746;2022-11-27T07:34:07;100944.66;;;8.54;55.37
9063;BME280;4567;42.118;24.746;2022-11-27T07:36:33;100948.00;;;8.61;55.20
9063;BME280;4567;42.118;24.746;2022-11-27T07:39:00;100952.09;;;8.59;55.22
9063;BME280;4567;42.118;24.746;2022-11-27T07:41:27;100945.53;;;8.65;55.13
9063;BME280;4567;42.118;24.746;2022-11-27T07:43:55;100938.78;;;8.72;54.85
9063;BME280;4567;42.118;24.746;2022-11-27T07:46:23;100937.72;;;8.83;54.70
9063;BME280;4567;42.118;24.746;2022-11-27T07:48:50;100947.88;;;8.93;54.26
9063;BME280;4567;42.118;24.746;2022-11-27T07:51:18;100943.78;;;8.90;54.60
9063;BME280;4567;42.118;24.746;2022-11-27T07:53:46;100945.97;;;8.88;54.70
9063;BME280;4567;42.118;24.746;2022-11-27T07:56:14;100958.03;;;8.92;54.58
9063;BME280;4567;42.118;24.746;2022-11-27T07:58:41;100949.25;;;8.90;54.79
9063;BME280;4567;42.118;24.746;2022-11-27T08:01:11;100954.72;;;8.95;54.80
9063;BME280;4567;42.118;24.746;2022-11-27T08:03:38;100956.94;;;8.98;54.55
9063;BME280;4567;42.118;24.746;2022-11-27T08:06:13;100948.41;;;8.90;54.86
9063;BME280;4567;42.118;24.746;2022-11-27T08:08:40;100947.69;;;9.04;54.19
9063;BME280;4567;42.118;24.746;2022-11-27T08:11:14;100930.09;;;8.85;54.34
9063;BME280;4567;42.118;24.746;2022-11-27T08:13:40;100952.59;;;9.07;54.29
9063;BME280;4567;42.118;24.746;2022-11-27T08:16:07;100922.50;;;8.97;54.35
9063;BME280;4567;42.118;24.746;2022-11-27T08:18:35;100952.13;;;9.25;54.20
9063;BME280;4567;42.118;24.746;2022-11-27T08:21:02;100941.19;;;9.25;54.08
9063;BME280;4567;42.118;24.746;2022-11-27T08:23:29;100938.75;;;9.29;53.66
9063;BME280;4567;42.118;24.746;2022-11-27T08:25:56;100931.63;;;9.28;54.00
9063;BME280;4567;42.118;24.746;2022-11-27T08:28:22;100946.16;;;9.38;53.68
9063;BME280;4567;42.118;24.746;2022-11-27T08:30:55;100930.31;;;9.40;53.54
9063;BME280;4567;42.118;24.746;2022-11-27T08:33:21;100930.31;;;9.55;53.21
9063;BME280;4567;42.118;24.746;2022-11-27T08:35:49;100934.72;;;9.62;52.88
9063;BME280;4567;42.118;24.746;2022-11-27T08:38:16;100920.47;;;9.59;53.22
9063;BME280;4567;42.118;24.746;2022-11-27T08:40:43;100934.19;;;9.75;52.71
9063;BME280;4567;42.118;24.746;2022-11-27T08:43:10;100930.09;;;9.92;52.33
9063;BME280;4567;42.118;24.746;2022-11-27T08:45:37;100941.63;;;9.99;52.02
9063;BME280;4567;42.118;24.746;2022-11-27T08:48:04;100935.59;;;10.02;51.96
9063;BME280;4567;42.118;24.746;2022-11-27T08:50:31;100933.19;;;10.16;51.43
9063;BME280;4567;42.118;24.746;2022-11-27T08:52:59;100926.59;;;10.12;51.52
9063;BME280;4567;42.118;24.746;2022-11-27T08:55:25;100930.41;;;10.06;51.26
9063;BME280;4567;42.118;24.746;2022-11-27T08:57:52;100928.25;;;10.08;51.42
9063;BME280;4567;42.118;24.746;2022-11-27T09:00:20;100927.41;;;10.17;51.64
9063;BME280;4567;42.118;24.746;2022-11-27T09:02:46;100927.69;;;10.06;52.00
9063;BME280;4567;42.118;24.746;2022-11-27T09:05:13;100915.34;;;10.18;51.78
9063;BME280;4567;42.118;24.746;2022-11-27T09:07:40;100921.13;;;10.17;51.68
9063;BME280;4567;42.118;24.746;2022-11-27T09:10:08;100910.69;;;10.24;51.54
9063;BME280;4567;42.118;24.746;2022-11-27T09:12:35;100920.25;;;10.36;51.53
9063;BME280;4567;42.118;24.746;2022-11-27T09:15:02;100913.94;;;10.46;50.93
9063;BME280;4567;42.118;24.746;2022-11-27T09:17:29;100904.63;;;10.47;51.11
9063;BME280;4567;42.118;24.746;2022-11-27T09:19:56;100905.41;;;10.62;50.67
9063;BME280;4567;42.118;24.746;2022-11-27T09:22:23;100899.38;;;10.60;50.58
9063;BME280;4567;42.118;24.746;2022-11-27T09:24:49;100902.97;;;10.56;50.77
9063;BME280;4567;42.118;24.746;2022-11-27T09:27:17;100896.34;;;10.72;50.44
9063;BME280;4567;42.118;24.746;2022-11-27T09:29:44;100895.75;;;10.85;49.84
9063;BME280;4567;42.118;24.746;2022-11-27T09:32:11;100888.88;;;10.87;49.62
9063;BME280;4567;42.118;24.746;2022-11-27T09:34:37;100872.38;;;10.92;49.28
9063;BME280;4567;42.118;24.746;2022-11-27T09:37:04;100878.66;;;11.08;49.06
9063;BME280;4567;42.118;24.746;2022-11-27T09:39:31;100875.00;;;11.22;48.53
9063;BME280;4567;42.118;24.746;2022-11-27T09:41:59;100863.38;;;11.35;48.26
9063;BME280;4567;42.118;24.746;2022-11-27T09:44:34;100862.31;;;11.31;47.73
9063;BME280;4567;42.118;24.746;2022-11-27T09:47:11;100857.56;;;11.47;47.25
9063;BME280;4567;42.118;24.746;2022-11-27T09:49:43;100853.75;;;11.38;46.70
9063;BME280;4567;42.118;24.746;2022-11-27T09:52:16;100850.72;;;11.39;47.20
9063;BME280;4567;42.118;24.746;2022-11-27T09:54:49;100849.81;;;11.54;47.06
9063;BME280;4567;42.118;24.746;2022-11-27T09:57:24;100840.69;;;11.68;45.96
9063;BME280;4567;42.118;24.746;2022-11-27T09:59:54;100832.06;;;11.80;46.16
9063;BME280;4567;42.118;24.746;2022-11-27T10:02:27;100836.94;;;11.88;45.83
9063;BME280;4567;42.118;24.746;2022-11-27T10:04:54;100828.34;;;11.94;45.92
9063;BME280;4567;42.118;24.746;2022-11-27T10:07:31;100828.78;;;12.06;45.37
9063;BME280;4567;42.118;24.746;2022-11-27T10:10:16;100829.19;;;11.95;45.54
9063;BME280;4567;42.118;24.746;2022-11-27T10:12:55;100824.78;;;11.94;45.85
9063;BME280;4567;42.118;24.746;2022-11-27T10:15:36;100820.84;;;12.05;45.45
9063;BME280;4567;42.118;24.746;2022-11-27T10:18:10;100823.34;;;12.01;45.51
9063;BME280;4567;42.118;24.746;2022-11-27T10:20:41;100804.31;;;11.81;45.39
9063;BME280;4567;42.118;24.746;2022-11-27T10:23:19;100815.34;;;12.05;45.08
9063;BME280;4567;42.118;24.746;2022-11-27T10:25:49;100817.56;;;12.03;44.91
9063;BME280;4567;42.118;24.746;2022-11-27T10:28:25;100809.06;;;11.99;45.13
9063;BME280;4567;42.118;24.746;2022-11-27T10:31:00;100814.28;;;12.01;44.97
9063;BME280;4567;42.118;24.746;2022-11-27T10:33:35;100805.22;;;12.00;44.84
9063;BME280;4567;42.118;24.746;2022-11-27T10:36:06;100803.19;;;12.11;44.70
9063;BME280;4567;42.118;24.746;2022-11-27T10:38:37;100791.78;;;12.22;44.34
9063;BME280;4567;42.118;24.746;2022-11-27T10:41:08;100788.59;;;12.39;43.92
9063;BME280;4567;42.118;24.746;2022-11-27T10:43:37;100782.91;;;12.54;43.67
9063;BME280;4567;42.118;24.746;2022-11-27T10:46:10;100782.09;;;12.53;43.34
9063;BME280;4567;42.118;24.746;2022-11-27T10:48:38;100774.75;;;12.67;43.12
9063;BME280;4567;42.118;24.746;2022-11-27T10:51:12;100776.16;;;12.65;42.32
9063;BME280;4567;42.118;24.746;2022-11-27T10:53:42;100771.94;;;12.72;41.51
9063;BME280;4567;42.118;24.746;2022-11-27T10:59:10;100766.59;;;12.81;41.15
9063;BME280;4567;42.118;24.746;2022-11-27T11:01:44;100764.59;;;12.86;41.06
9063;BME280;4567;42.118;24.746;2022-11-27T11:04:13;100759.53;;;12.93;40.62
9063;BME280;4567;42.118;24.746;2022-11-27T11:06:42;100749.75;;;12.64;40.72
9063;BME280;4567;42.118;24.746;2022-11-27T11:09:14;100743.69;;;12.67;41.25
9063;BME280;4567;42.118;24.746;2022-11-27T11:11:41;100740.94;;;12.67;41.42
9063;BME280;4567;42.118;24.746;2022-11-27T11:14:15;100738.63;;;12.74;41.17
9063;BME280;4567;42.118;24.746;2022-11-27T11:16:44;100729.00;;;12.53;41.60
9063;BME280;4567;42.118;24.746;2022-11-27T11:19:22;100734.34;;;12.44;41.95
9063;BME280;4567;42.118;24.746;2022-11-27T11:21:49;100737.72;;;12.60;42.07
9063;BME280;4567;42.118;24.746;2022-11-27T11:24:24;100734.19;;;12.78;41.89
9063;BME280;4567;42.118;24.746;2022-11-27T11:26:54;100730.81;;;12.81;41.47
9063;BME280;4567;42.118;24.746;2022-11-27T11:29:29;100728.53;;;12.88;41.37
9063;BME280;4567;42.118;24.746;2022-11-27T11:32:05;100725.09;;;12.96;40.89
9063;BME280;4567;42.118;24.746;2022-11-27T11:34:33;100718.94;;;13.04;40.64
9063;BME280;4567;42.118;24.746;2022-11-27T11:37:02;100705.31;;;12.94;40.63
9063;BME280;4567;42.118;24.746;2022-11-27T11:39:30;100718.88;;;13.09;40.75
9063;BME280;4567;42.118;24.746;2022-11-27T11:41:58;100710.94;;;13.07;40.43
9063;BME280;4567;42.118;24.746;2022-11-27T11:44:30;100711.84;;;12.79;40.64
9063;BME280;4567;42.118;24.746;2022-11-27T11:46:59;100704.38;;;13.03;40.36
9063;BME280;4567;42.118;24.746;2022-11-27T11:49:27;100693.66;;;13.20;40.11
9063;BME280;4567;42.118;24.746;2022-11-27T11:52:06;100698.38;;;13.33;38.14
9063;BME280;4567;42.118;24.746;2022-11-27T11:54:41;100699.34;;;13.24;38.10
9063;BME280;4567;42.118;24.746;2022-11-27T12:00:08;100687.69;;;13.13;38.84
9063;BME280;4567;42.118;24.746;2022-11-27T12:02:47;100688.13;;;13.20;37.16
9063;BME280;4567;42.118;24.746;2022-11-27T12:05:26;100681.00;;;13.19;36.70
9063;BME280;4567;42.118;24.746;2022-11-27T12:08:10;100677.75;;;13.31;36.21
9063;BME280;4567;42.118;24.746;2022-11-27T12:10:47;100684.00;;;13.36;35.60
9063;BME280;4567;42.118;24.746;2022-11-27T12:13:26;100673.72;;;13.42;35.89
9063;BME280;4567;42.118;24.746;2022-11-27T12:15:58;100672.59;;;13.43;36.00
9063;BME280;4567;42.118;24.746;2022-11-27T12:18:38;100668.66;;;13.49;34.79
9063;BME280;4567;42.118;24.746;2022-11-27T12:21:12;100664.53;;;13.46;35.54
9063;BME280;4567;42.118;24.746;2022-11-27T12:23:52;100657.00;;;13.52;34.76
9063;BME280;4567;42.118;24.746;2022-11-27T12:26:31;100660.78;;;13.56;34.95
9063;BME280;4567;42.118;24.746;2022-11-27T12:29:15;100652.44;;;13.61;34.89
9063;BME280;4567;42.118;24.746;2022-11-27T12:31:59;100654.69;;;13.72;34.82
9063;BME280;4567;42.118;24.746;2022-11-27T12:34:40;100656.56;;;13.77;34.42
9063;BME280;4567;42.118;24.746;2022-11-27T12:37:25;100650.53;;;13.88;33.84
9063;BME280;4567;42.118;24.746;2022-11-27T12:40:05;100655.63;;;13.95;33.31
9063;BME280;4567;42.118;24.746;2022-11-27T12:42:40;100650.94;;;13.96;33.52
9063;BME280;4567;42.118;24.746;2022-11-27T12:45:15;100651.66;;;13.88;33.43
9063;BME280;4567;42.118;24.746;2022-11-27T12:47:47;100646.94;;;13.88;33.70
9063;BME280;4567;42.118;24.746;2022-11-27T12:50:20;100642.38;;;13.97;33.63
9063;BME280;4567;42.118;24.746;2022-11-27T12:52:56;100650.94;;;14.09;32.71
9063;BME280;4567;42.118;24.746;2022-11-27T12:55:26;100647.25;;;14.14;32.71
9063;BME280;4567;42.118;24.746;2022-11-27T12:58:00;100651.25;;;14.08;32.97
9063;BME280;4567;42.118;24.746;2022-11-27T13:00:29;100646.13;;;14.15;32.65
9063;BME280;4567;42.118;24.746;2022-11-27T13:03:02;100646.44;;;14.13;32.46
9063;BME280;4567;42.118;24.746;2022-11-27T13:05:38;100652.97;;;14.04;32.69
9063;BME280;4567;42.118;24.746;2022-11-27T13:08:12;100650.41;;;13.93;32.82
9063;BME280;4567;42.118;24.746;2022-11-27T13:10:44;100653.69;;;13.96;32.76
9063;BME280;4567;42.118;24.746;2022-11-27T13:13:15;100647.25;;;14.00;32.33
9063;BME280;4567;42.118;24.746;2022-11-27T13:15:49;100648.78;;;14.06;32.23
9063;BME280;4567;42.118;24.746;2022-11-27T13:18:20;100643.75;;;14.08;32.01
9063;BME280;4567;42.118;24.746;2022-11-27T13:20:50;100640.41;;;14.11;31.94
9063;BME280;4567;42.118;24.746;2022-11-27T13:23:18;100639.69;;;14.06;31.84
9063;BME280;4567;42.118;24.746;2022-11-27T13:25:48;100650.41;;;14.07;31.80
9063;BME280;4567;42.118;24.746;2022-11-27T13:28:21;100644.28;;;14.10;31.32
9063;BME280;4567;42.118;24.746;2022-11-27T13:30:50;100644.59;;;14.09;31.61